createdAt,value
2022-09-12T00:01:42.210Z,834.8
2022-09-12T00:03:25.613Z,829.8
2022-09-12T00:05:09.000Z,825.1
2022-09-12T00:06:52.410Z,822.7
2022-09-12T00:08:35.797Z,823.5
2022-09-12T00:10:19.186Z,824.7
2022-09-12T00:13:45.659Z,822.2
2022-09-12T00:15:29.075Z,819.7
2022-09-12T00:17:12.451Z,821.8
2022-09-12T00:18:55.868Z,819.7
2022-09-12T00:20:39.245Z,814.5
2022-09-12T00:22:22.645Z,812.1
2022-09-12T00:24:06.104Z,812.5
2022-09-12T00:25:49.739Z,811.5
2022-09-12T00:27:33.147Z,811.1
2022-09-12T00:29:16.534Z,812.6
2022-09-12T00:30:59.925Z,811.2
2022-09-12T00:32:43.335Z,807
2022-09-12T00:34:26.724Z,807.8
2022-09-12T00:36:10.118Z,807.3
2022-09-12T00:37:53.823Z,803.2
2022-09-12T00:39:37.276Z,802.2
2022-09-12T00:41:20.627Z,802.5
2022-09-12T00:43:04.002Z,801.1
2022-09-12T00:44:47.415Z,799.6
2022-09-12T00:46:30.806Z,797.3
2022-09-12T00:48:14.207Z,795.7
2022-09-12T00:51:40.706Z,793.9
2022-09-12T00:53:24.055Z,792.4
2022-09-12T00:55:07.451Z,789.3
2022-09-12T00:56:50.871Z,788.1
2022-09-12T00:58:34.255Z,787.4
2022-09-12T01:00:17.651Z,786
2022-09-12T01:02:01.052Z,784.1
2022-09-12T01:03:44.763Z,781.9
2022-09-12T01:05:28.146Z,782.3
2022-09-12T01:07:11.542Z,782.6
2022-09-12T01:08:55.015Z,781.7
2022-09-12T01:10:38.371Z,780.5
2022-09-12T01:12:21.750Z,779.2
2022-09-12T01:14:05.122Z,779.2
2022-09-12T01:15:48.847Z,777.7
2022-09-12T01:17:32.223Z,776.3
2022-09-12T01:19:15.656Z,774.3
2022-09-12T01:20:59.020Z,772.7
2022-09-12T01:22:42.427Z,774
2022-09-12T01:24:25.810Z,771.6
2022-09-12T01:26:09.218Z,769.1
2022-09-12T01:27:52.918Z,765.6
2022-09-12T01:29:36.322Z,765.3
2022-09-12T01:31:19.706Z,763.4
2022-09-12T01:33:03.117Z,763.4
2022-09-12T01:34:46.505Z,762.3
2022-09-12T01:36:29.942Z,761.6
2022-09-12T01:38:13.287Z,762.5
2022-09-12T01:41:39.752Z,758.3
2022-09-12T01:43:23.158Z,757.3
2022-09-12T01:45:06.560Z,757.8
2022-09-12T01:46:49.956Z,759.8
2022-09-12T01:48:33.344Z,757.2
2022-09-12T01:50:16.734Z,757.2
2022-09-12T01:52:00.147Z,758.4
2022-09-12T01:53:43.830Z,759.7
2022-09-12T01:55:27.256Z,758
2022-09-12T01:57:10.636Z,758.2
2022-09-12T01:58:54.037Z,758
2022-09-12T02:00:37.441Z,756.1
2022-09-12T02:02:20.818Z,754.2
2022-09-12T02:04:04.223Z,753.7
2022-09-12T02:05:47.919Z,754.6
2022-09-12T02:07:31.317Z,751.3
2022-09-12T02:09:14.705Z,753.2
2022-09-12T02:10:58.114Z,752.7
2022-09-12T02:12:41.503Z,752.7
2022-09-12T02:14:24.915Z,753
2022-09-12T02:16:08.327Z,751.5
2022-09-12T02:17:52.036Z,750.5
2022-09-12T02:19:35.395Z,748.1
2022-09-12T02:21:18.792Z,746.5
2022-09-12T02:23:02.186Z,745.1
2022-09-12T02:24:45.592Z,743
2022-09-12T02:26:28.971Z,743.6
2022-09-12T02:28:12.366Z,743.7
2022-09-12T02:31:38.856Z,741.4
2022-09-12T02:33:22.241Z,741.3
2022-09-12T02:35:05.634Z,736.6
2022-09-12T02:36:49.089Z,734.4
2022-09-12T02:38:32.440Z,733.3
2022-09-12T02:40:15.845Z,730.8
2022-09-12T02:41:59.216Z,730.6
2022-09-12T02:45:25.694Z,732.9
2022-09-12T02:47:09.092Z,732.4
2022-09-12T02:48:52.478Z,731.3
2022-09-12T02:50:35.882Z,728.5
2022-09-12T02:52:19.290Z,726.8
2022-09-12T02:54:02.674Z,726.6
2022-09-12T02:57:29.151Z,730.4
2022-09-12T02:59:12.604Z,731.5
2022-09-12T03:00:55.950Z,733.1
2022-09-12T03:02:39.335Z,732.2
2022-09-12T03:04:22.729Z,730.4
2022-09-12T03:06:06.140Z,726.8
2022-09-12T03:07:49.536Z,726.5
2022-09-12T03:11:16.007Z,727.3
2022-09-12T03:12:59.393Z,728.3
2022-09-12T03:14:42.786Z,726.7
2022-09-12T03:16:26.179Z,725.2
2022-09-12T03:18:09.575Z,726.1
2022-09-12T03:19:52.976Z,723.5
2022-09-12T03:23:19.498Z,721.1
2022-09-12T03:25:02.850Z,720.7
2022-09-12T03:26:46.295Z,723.7
2022-09-12T03:28:29.650Z,725.5
2022-09-12T03:30:13.025Z,723.2
2022-09-12T03:31:56.499Z,722.8
2022-09-12T03:33:39.824Z,722.3
2022-09-12T03:35:23.528Z,719.3
2022-09-12T03:37:06.978Z,718.8
2022-09-12T03:38:50.315Z,721.5
2022-09-12T03:40:33.719Z,724.7
2022-09-12T03:42:17.119Z,724.1
2022-09-12T03:44:00.516Z,719.8
2022-09-12T03:45:43.917Z,715.8
2022-09-12T03:47:27.613Z,716.5
2022-09-12T03:49:11.003Z,717.3
2022-09-12T03:50:54.403Z,714.8
2022-09-12T03:52:37.793Z,716.3
2022-09-12T03:54:21.195Z,714.5
2022-09-12T03:56:04.601Z,713.4
2022-09-12T03:57:47.991Z,711.7
2022-09-12T03:59:31.692Z,711.9
2022-09-12T04:01:15.095Z,710.5
2022-09-12T04:02:58.505Z,710.5
2022-09-12T04:04:41.871Z,713.5
2022-09-12T04:06:25.271Z,712.1
2022-09-12T04:08:08.674Z,711.8
2022-09-12T04:09:52.065Z,708.3
2022-09-12T04:13:18.538Z,707.7
2022-09-12T04:15:01.929Z,706.7
2022-09-12T04:16:45.332Z,704.3
2022-09-12T04:18:28.730Z,703.7
2022-09-12T04:20:12.142Z,701.7
2022-09-12T04:21:55.525Z,703.7
2022-09-12T04:23:38.913Z,703
2022-09-12T04:25:22.609Z,707.2
2022-09-12T04:27:06.023Z,706.6
2022-09-12T04:28:49.425Z,706.8
2022-09-12T04:30:32.797Z,708.5
2022-09-12T04:32:16.249Z,709.4
2022-09-12T04:33:59.635Z,709.2
2022-09-12T04:35:43.000Z,707
2022-09-12T04:37:26.695Z,705.9
2022-09-12T04:39:10.092Z,709.1
2022-09-12T04:40:53.484Z,709.7
2022-09-12T04:42:36.888Z,707.1
2022-09-12T04:44:20.306Z,706.3
2022-09-12T04:46:03.685Z,703.5
2022-09-12T04:47:47.070Z,701.5
2022-09-12T04:49:30.785Z,701.5
2022-09-12T04:51:14.170Z,702
2022-09-12T04:52:57.577Z,701.8
2022-09-12T04:54:40.962Z,702
2022-09-12T04:56:24.355Z,702.1
2022-09-12T04:58:07.755Z,700.2
2022-09-12T04:59:51.183Z,699.4
2022-09-12T05:01:34.892Z,697.7
2022-09-12T05:03:18.255Z,694
2022-09-12T05:05:01.652Z,695.4
2022-09-12T05:06:45.079Z,695.4
2022-09-12T05:08:28.472Z,695.4
2022-09-12T05:10:11.927Z,696.3
2022-09-12T05:11:55.251Z,695.3
2022-09-12T05:13:38.966Z,699.2
2022-09-12T05:15:22.347Z,700.7
2022-09-12T05:17:05.728Z,700.1
2022-09-12T05:18:49.147Z,698.7
2022-09-12T05:20:32.526Z,699.7
2022-09-12T05:22:15.933Z,697
2022-09-12T05:23:59.452Z,695.5
2022-09-12T05:25:43.106Z,693.4
2022-09-12T05:27:26.413Z,695.2
2022-09-12T05:29:09.844Z,696.5
2022-09-12T05:30:53.207Z,698.1
2022-09-12T05:32:36.614Z,696.8
2022-09-12T05:34:19.991Z,692.6
2022-09-12T05:36:03.443Z,690.2
2022-09-12T05:39:29.888Z,691.6
2022-09-12T05:41:13.275Z,693.2
2022-09-12T05:42:56.672Z,691.2
2022-09-12T05:44:40.084Z,689.5
2022-09-12T05:46:23.454Z,690.4
2022-09-12T05:48:06.844Z,691.3
2022-09-12T05:51:33.320Z,691.2
2022-09-12T05:53:16.713Z,690.2
2022-09-12T05:55:00.107Z,687.8
2022-09-12T05:56:43.501Z,687.5
2022-09-12T05:58:26.911Z,688.2
2022-09-12T06:00:10.308Z,688.2
2022-09-12T06:01:53.796Z,685.6
2022-09-12T06:03:37.395Z,684.4
2022-09-12T06:05:20.794Z,682.5
2022-09-12T06:07:04.197Z,685.2
2022-09-12T06:08:47.587Z,687.8
2022-09-12T06:10:31.003Z,684.4
2022-09-12T06:12:14.366Z,683.4
2022-09-12T06:13:57.784Z,690.6
2022-09-12T06:15:41.475Z,691
2022-09-12T06:17:24.882Z,699.3
2022-09-12T06:19:08.287Z,699.1
2022-09-12T06:20:51.661Z,698
2022-09-12T06:22:35.062Z,696.7
2022-09-12T06:24:18.449Z,696.4
2022-09-12T06:26:01.842Z,698.7
2022-09-12T06:27:45.559Z,699.6
2022-09-12T06:29:29.221Z,698
2022-09-12T06:31:12.343Z,698.4
2022-09-12T06:32:55.753Z,696.3
2022-09-12T06:34:39.175Z,698.7
2022-09-12T06:36:22.532Z,698.7
2022-09-12T06:38:05.933Z,698.1
2022-09-12T06:39:49.650Z,699.8
2022-09-12T06:41:33.028Z,705.8
2022-09-12T06:43:16.432Z,708.8
2022-09-12T06:44:59.827Z,714.2
2022-09-12T06:46:43.218Z,722.4
2022-09-12T06:48:26.621Z,727.6
2022-09-12T06:50:10.020Z,730.1
2022-09-12T06:53:36.478Z,756.7
2022-09-12T06:55:19.874Z,769.8
2022-09-12T06:57:03.269Z,767.3
2022-09-12T06:58:46.698Z,764.1
2022-09-12T07:00:30.083Z,767
2022-09-12T07:02:13.490Z,767.2
2022-09-12T07:03:56.874Z,770.1
2022-09-12T07:07:23.334Z,788.2
2022-09-12T07:09:06.739Z,786.8
2022-09-12T07:10:50.130Z,792.3
2022-09-12T07:12:33.547Z,791.5
2022-09-12T07:14:16.913Z,789.2
2022-09-12T07:16:00.318Z,788.2
2022-09-12T07:17:43.724Z,786.5
2022-09-12T07:19:27.429Z,793.6
2022-09-12T07:21:10.816Z,797.4
2022-09-12T07:22:54.214Z,805.4
2022-09-12T07:24:37.604Z,814.1
2022-09-12T07:26:21.002Z,820.2
2022-09-12T07:28:04.393Z,828.8
2022-09-12T07:29:47.784Z,831.7
2022-09-12T07:33:14.265Z,826.4
2022-09-12T07:34:57.669Z,816
2022-09-12T07:36:41.097Z,811.6
2022-09-12T07:38:24.449Z,807.3
2022-09-12T07:40:07.879Z,808.5
2022-09-12T07:41:51.236Z,807.8
2022-09-12T07:45:17.733Z,798.7
2022-09-12T07:47:01.127Z,799.1
2022-09-12T07:48:44.507Z,796.7
2022-09-12T07:50:27.905Z,795.2
2022-09-12T07:52:11.301Z,796.1
2022-09-12T07:53:54.693Z,800
2022-09-12T07:55:38.087Z,807
2022-09-12T07:57:21.800Z,812.8
2022-09-12T07:59:05.246Z,808.8
2022-09-12T08:00:48.581Z,798.8
2022-09-12T08:02:31.982Z,794.6
2022-09-12T08:04:15.396Z,790
2022-09-12T08:05:58.781Z,788
2022-09-12T08:07:42.177Z,782.4
2022-09-12T08:09:25.884Z,778.7
2022-09-12T08:11:09.270Z,774.8
2022-09-12T08:12:52.655Z,767
2022-09-12T08:14:36.103Z,762.1
2022-09-12T08:16:19.473Z,754
2022-09-12T08:18:02.864Z,749.6
2022-09-12T08:19:46.253Z,748.1
2022-09-12T08:21:29.984Z,748.9
2022-09-12T08:23:13.410Z,752.2
2022-09-12T08:24:56.784Z,755.1
2022-09-12T08:26:40.192Z,757.4
2022-09-12T08:28:23.548Z,756.8
2022-09-12T08:30:06.970Z,757
2022-09-12T08:31:50.332Z,758
2022-09-12T08:35:16.850Z,755.4
2022-09-12T08:37:00.195Z,753.6
2022-09-12T08:38:43.597Z,756
2022-09-12T08:40:27.002Z,753.4
2022-09-12T08:42:10.442Z,752.3
2022-09-12T08:43:53.781Z,755
2022-09-12T08:45:37.251Z,755.5
2022-09-12T08:47:20.953Z,756.8
2022-09-12T08:49:04.317Z,758.2
2022-09-12T08:50:47.676Z,756.6
2022-09-12T08:52:31.073Z,754.1
2022-09-12T08:54:14.522Z,752.2
2022-09-12T08:55:57.895Z,753
2022-09-12T08:57:41.258Z,753.4
2022-09-12T08:59:24.971Z,750
2022-09-12T09:01:08.364Z,751.7
2022-09-12T09:02:51.756Z,750.6
2022-09-12T09:04:35.143Z,748.2
2022-09-12T09:06:18.552Z,745.3
2022-09-12T09:08:02.046Z,743.2
2022-09-12T09:09:45.343Z,742.7
2022-09-12T09:13:11.808Z,741.6
2022-09-12T09:14:55.203Z,742
2022-09-12T09:16:38.610Z,752.4
2022-09-12T09:18:21.993Z,772.7
2022-09-12T09:20:05.392Z,795.4
2022-09-12T09:21:48.804Z,812.3
2022-09-12T09:23:32.243Z,816.3
2022-09-12T09:25:15.895Z,820.2
2022-09-12T09:26:59.295Z,827.6
2022-09-12T09:28:42.687Z,842.7
2022-09-12T09:30:26.118Z,842.7
2022-09-12T09:32:09.472Z,838.7
2022-09-12T09:33:52.885Z,839.1
2022-09-12T09:35:36.268Z,840.3
2022-09-12T09:37:19.984Z,836.9
2022-09-12T09:39:03.372Z,828.8
2022-09-12T09:40:46.766Z,825.4
2022-09-12T09:42:30.164Z,822.2
2022-09-12T09:44:13.607Z,820.7
2022-09-12T09:45:56.993Z,819.7
2022-09-12T09:49:23.458Z,825.1
2022-09-12T09:51:06.827Z,819.3
2022-09-12T09:52:50.249Z,821.2
2022-09-12T09:54:33.625Z,831.5
2022-09-12T09:56:17.005Z,850.1
2022-09-12T09:58:00.425Z,853.1
2022-09-12T09:59:43.824Z,849.6
2022-09-12T10:01:27.517Z,809.9
2022-09-12T10:03:10.934Z,747.5
2022-09-12T10:04:54.318Z,757
2022-09-12T10:06:37.818Z,768.1
2022-09-12T10:08:21.101Z,768.5
2022-09-12T10:10:04.496Z,767.1
2022-09-12T10:13:30.981Z,763.5
2022-09-12T10:15:14.369Z,762.3
2022-09-12T10:16:57.772Z,762.3
2022-09-12T10:18:41.195Z,763.1
2022-09-12T10:20:24.550Z,760.1
2022-09-12T10:22:08.102Z,760.4
2022-09-12T10:23:51.358Z,760.6
2022-09-12T10:25:35.050Z,760.3
2022-09-12T10:27:18.488Z,758.8
2022-09-12T10:29:01.859Z,756.8
2022-09-12T10:30:45.245Z,754.4
2022-09-12T10:32:28.747Z,752.3
2022-09-12T10:34:12.078Z,751.8
2022-09-12T10:35:55.435Z,753.7
2022-09-12T10:37:39.127Z,757.7
2022-09-12T10:39:22.527Z,759.8
2022-09-12T10:41:05.929Z,759.1
2022-09-12T10:42:49.328Z,756.6
2022-09-12T10:44:32.731Z,758.3
2022-09-12T10:46:16.113Z,758.4
2022-09-12T10:47:59.531Z,759.8
2022-09-12T10:49:43.230Z,760.8
2022-09-12T10:51:26.632Z,760
2022-09-12T10:53:10.046Z,761.1
2022-09-12T10:54:53.438Z,759.7
2022-09-12T10:56:36.836Z,757.3
2022-09-12T10:58:20.202Z,756
2022-09-12T11:00:03.617Z,761.3
2022-09-12T11:03:30.096Z,783.1
2022-09-12T11:05:13.700Z,785
2022-09-12T11:06:56.881Z,792.4
2022-09-12T11:08:40.267Z,799.4
2022-09-12T11:10:23.658Z,875
2022-09-12T11:12:07.073Z,900.1
2022-09-12T11:13:50.562Z,879.1
2022-09-12T11:15:34.169Z,877.5
2022-09-12T11:17:17.559Z,885.3
2022-09-12T11:19:00.951Z,901.7
2022-09-12T11:20:44.350Z,951.2
2022-09-12T11:22:27.739Z,882.5
2022-09-12T11:24:11.143Z,764.3
2022-09-12T11:25:54.550Z,738.4
2022-09-12T11:27:38.368Z,716.9
2022-09-12T11:29:21.753Z,697
2022-09-12T11:31:05.048Z,657
2022-09-12T11:32:48.469Z,648.6
2022-09-12T11:34:31.834Z,648.3
2022-09-12T11:36:15.232Z,626.3
2022-09-12T11:37:58.618Z,591.7
2022-09-12T11:41:25.093Z,569.5
2022-09-12T11:43:08.490Z,565.6
2022-09-12T11:44:51.900Z,557.6
2022-09-12T11:46:35.291Z,541.6
2022-09-12T11:48:18.686Z,512.6
2022-09-12T11:50:02.103Z,494.3
2022-09-12T11:51:45.482Z,489.5
2022-09-12T11:53:29.183Z,489.2
2022-09-12T11:55:12.623Z,487.4
2022-09-12T11:56:55.990Z,481.1
2022-09-12T11:58:39.401Z,473.6
2022-09-12T12:00:22.782Z,469.7
2022-09-12T12:02:06.179Z,467.8
2022-09-12T12:03:49.566Z,463.3
2022-09-12T12:05:33.285Z,462.3
2022-09-12T12:07:16.697Z,461.2
2022-09-12T12:09:00.076Z,453.7
2022-09-12T12:10:43.468Z,448.4
2022-09-12T12:12:26.871Z,443.6
2022-09-12T12:14:10.263Z,439.5
2022-09-12T12:15:53.667Z,436.3
2022-09-12T12:19:20.131Z,432.7
2022-09-12T12:21:03.528Z,429.1
2022-09-12T12:22:46.929Z,427.2
2022-09-12T12:24:30.314Z,421.1
2022-09-12T12:26:13.713Z,418.3
2022-09-12T12:27:57.105Z,415.2
2022-09-12T12:31:23.590Z,409.7
2022-09-12T12:33:06.988Z,408.4
2022-09-12T12:34:50.375Z,404.8
2022-09-12T12:36:33.778Z,400.2
2022-09-12T12:38:17.187Z,400.4
2022-09-12T12:40:00.573Z,402
2022-09-12T12:43:27.046Z,403.3
2022-09-12T12:45:10.432Z,407
2022-09-12T12:46:53.847Z,408.2
2022-09-12T12:48:37.237Z,411.7
2022-09-12T12:50:20.627Z,458.6
2022-09-12T12:52:04.020Z,506.2
2022-09-12T12:53:47.426Z,497.6
2022-09-12T12:55:31.136Z,493.5
2022-09-12T12:57:14.542Z,501.4
2022-09-12T12:58:57.926Z,496.7
2022-09-12T13:00:41.315Z,495.2
2022-09-12T13:02:24.721Z,495.5
2022-09-12T13:04:08.167Z,485.1
2022-09-12T13:05:51.531Z,536.1
2022-09-12T13:09:17.992Z,525.2
2022-09-12T13:11:01.381Z,516
2022-09-12T13:12:44.775Z,513.2
2022-09-12T13:14:28.164Z,512.6
2022-09-12T13:16:11.576Z,523.2
2022-09-12T13:17:54.973Z,578.8
2022-09-12T13:19:38.401Z,644.3
2022-09-12T13:21:22.076Z,638
2022-09-12T13:23:05.463Z,629.4
2022-09-12T13:24:48.883Z,594.7
2022-09-12T13:26:32.269Z,582
2022-09-12T13:28:15.666Z,584.6
2022-09-12T13:29:59.060Z,591.3
2022-09-12T13:31:42.450Z,594.1
2022-09-12T13:35:08.918Z,649.5
2022-09-12T13:36:52.311Z,642.8
2022-09-12T13:38:35.717Z,626.7
2022-09-12T13:40:19.108Z,608.1
2022-09-12T13:42:02.593Z,596
2022-09-12T13:43:45.915Z,591.3
2022-09-12T13:45:29.313Z,588.4
2022-09-12T13:47:13.008Z,572.4
2022-09-12T13:48:56.415Z,569.4
2022-09-12T13:50:39.831Z,560.1
2022-09-12T13:52:23.188Z,551.2
2022-09-12T13:54:06.597Z,549.4
2022-09-12T13:55:49.995Z,555
2022-09-12T13:57:33.508Z,553.5
2022-09-12T13:59:17.090Z,557.4
2022-09-12T14:01:00.486Z,570.8
2022-09-12T14:02:43.905Z,590.1
2022-09-12T14:04:27.272Z,603.7
2022-09-12T14:06:10.669Z,615
2022-09-12T14:07:54.074Z,618.4
2022-09-12T14:09:37.495Z,621.8
2022-09-12T14:11:21.206Z,619.8
2022-09-12T14:13:04.577Z,614.2
2022-09-12T14:14:47.973Z,607.8
2022-09-12T14:16:31.377Z,603.7
2022-09-12T14:18:14.831Z,601.2
2022-09-12T14:20:11.262Z,601.2
2022-09-12T14:21:41.587Z,599.1
2022-09-12T14:25:08.026Z,584.9
2022-09-12T14:26:51.417Z,575.8
2022-09-12T14:28:34.861Z,565.2
2022-09-12T14:30:18.217Z,556.1
2022-09-12T14:32:01.601Z,544.7
2022-09-12T14:33:45.053Z,541.2
2022-09-12T14:35:28.398Z,534.5
2022-09-12T14:37:12.172Z,524.8
2022-09-12T14:38:55.541Z,518.4
2022-09-12T14:40:38.893Z,514.4
2022-09-12T14:42:22.365Z,507.1
2022-09-12T14:44:05.684Z,502.3
2022-09-12T14:45:49.111Z,501.7
2022-09-12T14:47:32.547Z,504.1
2022-09-12T14:49:16.179Z,505.1
2022-09-12T14:50:59.581Z,504.5
2022-09-12T14:52:42.984Z,507
2022-09-12T14:54:26.372Z,504.7
2022-09-12T14:56:09.765Z,502.1
2022-09-12T14:57:53.173Z,501.4
2022-09-12T14:59:36.567Z,501.3
2022-09-12T15:01:20.256Z,502.1
2022-09-12T15:03:03.726Z,500.3
2022-09-12T15:04:47.074Z,504.3
2022-09-12T15:06:30.465Z,506.7
2022-09-12T15:08:13.915Z,507.2
2022-09-12T15:09:57.282Z,505.5
2022-09-12T15:11:40.663Z,505.7
2022-09-12T15:15:07.110Z,505.3
2022-09-12T15:16:50.553Z,506
2022-09-12T15:18:33.898Z,507.1
2022-09-12T15:20:17.311Z,507
2022-09-12T15:22:00.710Z,507.8
2022-09-12T15:23:44.100Z,508.4
2022-09-12T15:28:53.353Z,510.4
2022-09-12T15:30:36.754Z,513.2
2022-09-12T15:32:20.132Z,517.4
2022-09-12T15:34:03.549Z,522.1
2022-09-12T15:35:46.940Z,525.1
2022-09-12T15:37:30.319Z,521.5
2022-09-12T15:39:13.729Z,523.4
2022-09-12T15:40:57.427Z,526.8
2022-09-12T15:42:40.827Z,529.4
2022-09-12T15:44:24.214Z,533.1
2022-09-12T15:46:07.616Z,535.1
2022-09-12T15:47:51.007Z,538.2
2022-09-12T15:49:34.406Z,540.2
2022-09-12T15:51:17.813Z,542.7
2022-09-12T15:53:01.778Z,549.6
2022-09-12T15:54:44.902Z,559.7
2022-09-12T15:56:28.337Z,569
2022-09-12T15:58:11.709Z,573.6
2022-09-12T15:59:55.092Z,577.3
2022-09-12T16:01:38.746Z,582.1
2022-09-12T16:03:21.883Z,587.3
2022-09-12T16:06:48.375Z,594.5
2022-09-12T16:08:31.776Z,599.5
2022-09-12T16:10:15.156Z,608.8
2022-09-12T16:11:58.585Z,613.6
2022-09-12T16:13:41.951Z,616.2
2022-09-12T16:15:25.357Z,618.6
2022-09-12T16:18:51.821Z,625.1
2022-09-12T16:20:35.212Z,630.7
2022-09-12T16:22:18.618Z,634.2
2022-09-12T16:24:02.017Z,638.7
2022-09-12T16:25:45.412Z,642.6
2022-09-12T16:27:28.811Z,643.3
2022-09-12T16:30:55.909Z,648.1
2022-09-12T16:32:39.316Z,652.5
2022-09-12T16:34:22.707Z,655.1
2022-09-12T16:36:06.100Z,655.3
2022-09-12T16:37:49.488Z,657.4
2022-09-12T16:39:32.880Z,661.8
2022-09-12T16:41:16.287Z,667.1
2022-09-12T16:42:59.997Z,677
2022-09-12T16:44:43.383Z,683.5
2022-09-12T16:46:26.791Z,690.6
2022-09-12T16:48:10.198Z,695.7
2022-09-12T16:49:53.579Z,700.4
2022-09-12T16:51:36.979Z,706.1
2022-09-12T16:53:20.364Z,714.3
2022-09-12T16:55:04.072Z,715.9
2022-09-12T16:56:47.465Z,717
2022-09-12T16:58:30.879Z,725.4
2022-09-12T17:00:14.268Z,732.4
2022-09-12T17:01:57.665Z,740.3
2022-09-12T17:03:41.058Z,746.6
2022-09-12T17:05:24.461Z,751.4
2022-09-12T17:08:50.966Z,757.8
2022-09-12T17:10:34.362Z,759.1
2022-09-12T17:12:17.717Z,765.4
2022-09-12T17:14:01.113Z,775.8
2022-09-12T17:15:44.514Z,779.3
2022-09-12T17:17:27.910Z,779.4
2022-09-12T17:19:11.353Z,782.2
2022-09-12T17:22:37.801Z,784.6
2022-09-12T17:24:21.186Z,789.1
2022-09-12T17:26:04.831Z,793.8
2022-09-12T17:27:47.969Z,797.7
2022-09-12T17:29:31.367Z,801.5
2022-09-12T17:31:14.777Z,802.1
2022-09-12T17:34:41.241Z,804
2022-09-12T17:36:24.634Z,807.1
2022-09-12T17:38:08.034Z,816.1
2022-09-12T17:39:51.423Z,824.8
2022-09-12T17:41:34.844Z,831.3
2022-09-12T17:43:18.234Z,836
2022-09-12T17:45:01.634Z,837.1
2022-09-12T17:46:45.330Z,839.3
2022-09-12T17:48:28.738Z,842.4
2022-09-12T17:50:12.127Z,845.5
2022-09-12T17:51:55.520Z,851.2
2022-09-12T17:53:38.912Z,858.1
2022-09-12T17:55:22.305Z,861.3
2022-09-12T17:57:05.711Z,861.7
2022-09-12T18:00:32.186Z,862.9
2022-09-12T18:02:15.650Z,865.2
2022-09-12T18:03:59.011Z,865.7
2022-09-12T18:05:42.440Z,865.2
2022-09-12T18:07:25.765Z,865.5
2022-09-12T18:09:09.159Z,865.6
2022-09-12T18:10:52.560Z,864.3
2022-09-12T18:12:36.269Z,866.8
2022-09-12T18:14:19.686Z,872.3
2022-09-12T18:16:03.050Z,879.3
2022-09-12T18:17:46.452Z,890.7
2022-09-12T18:19:29.837Z,898
2022-09-12T18:21:13.310Z,900.7
2022-09-12T18:22:56.622Z,900.7
2022-09-12T18:26:23.137Z,903
2022-09-12T18:28:06.491Z,903
2022-09-12T18:29:49.906Z,905.8
2022-09-12T18:31:33.283Z,907.2
2022-09-12T18:33:16.706Z,907.3
2022-09-12T18:35:00.082Z,907.1
2022-09-12T18:36:43.527Z,906.7
2022-09-12T18:40:09.964Z,907.5
2022-09-12T18:41:53.402Z,908.3
2022-09-12T18:43:36.762Z,913.5
2022-09-12T18:45:20.145Z,915.5
2022-09-12T18:47:03.558Z,917
2022-09-12T18:48:46.924Z,918.7
2022-09-12T18:50:30.332Z,918.6
2022-09-12T18:52:14.056Z,919.4
2022-09-12T18:53:57.454Z,921.3
2022-09-12T18:55:40.826Z,924.4
2022-09-12T18:57:24.261Z,926.7
2022-09-12T18:59:07.629Z,926
2022-09-12T19:00:51.015Z,924.2
2022-09-12T19:02:34.399Z,924.5
2022-09-12T19:06:00.869Z,922.6
2022-09-12T19:07:44.284Z,924.7
2022-09-12T19:09:27.694Z,924.7
2022-09-12T19:11:11.068Z,922.6
2022-09-12T19:12:54.475Z,920
2022-09-12T19:14:37.856Z,918.3
2022-09-12T19:16:21.268Z,915.5
2022-09-12T19:19:47.772Z,905.8
2022-09-12T19:21:31.156Z,899.2
2022-09-12T19:23:14.527Z,899.5
2022-09-12T19:24:57.920Z,901.7
2022-09-12T19:26:41.322Z,904.2
2022-09-12T19:28:24.705Z,908
2022-09-12T19:30:08.107Z,913.7
2022-09-12T19:33:34.590Z,913.6
2022-09-12T19:35:17.975Z,913.6
2022-09-12T19:37:01.380Z,914.1
2022-09-12T19:38:44.768Z,914.6
2022-09-12T19:40:28.180Z,915.1
2022-09-12T19:42:11.553Z,915.6
2022-09-12T19:43:54.953Z,914.5
2022-09-12T19:45:38.660Z,912.8
2022-09-12T19:47:22.053Z,914
2022-09-12T19:49:05.448Z,913.4
2022-09-12T19:50:48.842Z,911.3
2022-09-12T19:52:32.258Z,911.3
2022-09-12T19:54:15.644Z,909.8
2022-09-12T19:55:59.032Z,905.2
2022-09-12T19:59:25.503Z,899.6
2022-09-12T20:01:08.896Z,896.1
2022-09-12T20:02:52.295Z,889.6
2022-09-12T20:04:35.689Z,888.1
2022-09-12T20:06:19.089Z,888.7
2022-09-12T20:08:02.492Z,892.2
2022-09-12T20:09:45.877Z,893.6
2022-09-12T20:13:12.366Z,898.1
2022-09-12T20:14:55.745Z,901.2
2022-09-12T20:16:39.144Z,901.8
2022-09-12T20:18:22.553Z,903.1
2022-09-12T20:20:05.931Z,903.8
2022-09-12T20:21:49.346Z,915.7
2022-09-12T20:23:32.734Z,923.6
2022-09-12T20:26:59.193Z,922.9
2022-09-12T20:28:42.640Z,922.8
2022-09-12T20:30:26.004Z,922.7
2022-09-12T20:32:09.427Z,923.2
2022-09-12T20:33:52.808Z,921.1
2022-09-12T20:35:36.190Z,918
2022-09-12T20:37:19.573Z,913.1
2022-09-12T20:40:46.051Z,911.8
2022-09-12T20:42:29.436Z,912.8
2022-09-12T20:44:12.847Z,912.7
2022-09-12T20:45:56.234Z,911.5
2022-09-12T20:47:39.688Z,912.5
2022-09-12T20:49:23.034Z,915.2
2022-09-12T20:51:06.435Z,922.8
2022-09-12T20:54:32.901Z,927.4
2022-09-12T20:56:16.316Z,926
2022-09-12T20:57:59.691Z,924
2022-09-12T20:59:43.085Z,923.7
2022-09-12T21:01:26.491Z,925.5
2022-09-12T21:03:09.864Z,928.8
2022-09-12T21:04:53.278Z,930.7
2022-09-12T21:06:37.121Z,932.7
2022-09-12T21:08:20.388Z,931.7
2022-09-12T21:10:03.826Z,927.3
2022-09-12T21:11:47.158Z,926.2
2022-09-12T21:13:30.580Z,924.7
2022-09-12T21:15:13.980Z,920.7
2022-09-12T21:16:57.401Z,918.7
2022-09-12T21:20:23.834Z,916.3
2022-09-12T21:22:07.224Z,919
2022-09-12T21:23:50.636Z,920.3
2022-09-12T21:25:34.029Z,926.3
2022-09-12T21:27:17.420Z,933
2022-09-12T21:29:00.816Z,933.7
2022-09-12T21:34:10.072Z,912.1
2022-09-12T21:35:53.489Z,903.3
2022-09-12T21:37:36.851Z,900
2022-09-12T21:41:03.632Z,898.6
2022-09-12T21:42:47.031Z,890.5
2022-09-12T21:44:30.417Z,883.2
2022-09-12T21:46:14.123Z,880.2
2022-09-12T21:47:57.529Z,879.7
2022-09-12T21:49:40.931Z,876.7
2022-09-12T21:51:24.311Z,875.5
2022-09-12T21:53:07.818Z,873.5
2022-09-12T21:54:51.124Z,873.3
2022-09-12T21:56:34.494Z,873.5
2022-09-12T21:58:18.202Z,871.5
2022-09-12T22:00:01.602Z,872.6
2022-09-12T22:01:44.996Z,871.5
2022-09-12T22:03:28.485Z,871.8
2022-09-12T22:05:11.851Z,874.3
2022-09-12T22:06:55.201Z,873.2
2022-09-12T22:08:38.596Z,874.7
2022-09-12T22:12:05.080Z,872.1
2022-09-12T22:13:48.445Z,870.2
2022-09-12T22:15:31.858Z,867.8
2022-09-12T22:17:15.246Z,865.8
2022-09-12T22:18:58.741Z,860.5
2022-09-12T22:20:42.090Z,858
2022-09-12T22:25:51.284Z,858.2
2022-09-12T22:27:34.683Z,857.6
2022-09-12T22:29:18.086Z,855.8
2022-09-12T22:31:01.480Z,855.2
2022-09-12T22:32:44.863Z,856.7
2022-09-12T22:34:28.273Z,853
2022-09-12T22:37:54.813Z,845.5
2022-09-12T22:39:38.168Z,845.6
2022-09-12T22:41:21.524Z,845.3
2022-09-12T22:43:04.928Z,845
2022-09-12T22:44:48.313Z,842.4
2022-09-12T22:46:31.729Z,839.1
2022-09-12T22:48:15.105Z,839.4
2022-09-12T22:51:41.589Z,837.5
2022-09-12T22:53:25.014Z,834.7
2022-09-12T22:55:08.394Z,830.7
2022-09-12T22:56:51.787Z,829.6
2022-09-12T22:58:35.238Z,825.8
2022-09-12T23:00:18.555Z,822.1
2022-09-12T23:02:01.979Z,820.6
2022-09-12T23:05:28.423Z,818.6
2022-09-12T23:07:11.824Z,817.1
2022-09-12T23:08:55.220Z,814.3
2022-09-12T23:10:38.648Z,808
2022-09-12T23:12:22.002Z,804.6
2022-09-12T23:14:05.403Z,803.2
2022-09-12T23:15:48.883Z,803.1
2022-09-12T23:17:32.553Z,801.4
2022-09-12T23:19:15.937Z,801
2022-09-12T23:20:59.300Z,799.4
2022-09-12T23:22:42.694Z,798.5
2022-09-12T23:24:26.098Z,796.5
2022-09-12T23:26:09.495Z,793.4
2022-09-12T23:27:52.876Z,789.4
2022-09-12T23:31:19.356Z,786.7
2022-09-12T23:33:02.767Z,786.4
2022-09-12T23:34:46.176Z,786.4
2022-09-12T23:36:29.554Z,785.6
2022-09-12T23:38:12.939Z,782.6
2022-09-12T23:39:56.332Z,781.8
2022-09-12T23:41:39.733Z,782.7
2022-09-12T23:45:06.208Z,782.6
2022-09-12T23:46:49.611Z,782.8
2022-09-12T23:48:33.000Z,783.6
2022-09-12T23:50:16.384Z,784.2
2022-09-12T23:51:59.802Z,786.5
2022-09-12T23:53:43.218Z,788.2
2022-09-12T23:55:26.583Z,785.5
